Date,TemperatureHighF,TemperatureAvgF,TemperatureLowF,DewpointHighF,DewpointAvgF,DewpointLowF,HumidityHigh,HumidityAvg,HumidityLow,PressureMaxIn,PressureMinIn,WindSpeedMaxMPH,WindSpeedAvgMPH,GustSpeedMaxMPH,PrecipitationSumIn
2013-1-1,59.4,42.9,29.8,20.3,10.3,0.9,42,28,16,29.94,29.88,8,1,13,0.00
2013-1-2,59.7,40.1,0.0,16.1,8.1,3.5,41,28,17,29.91,29.83,6,1,9,0.00
2013-1-3,61.0,38.8,0.0,20.2,9.4,4.3,41,31,16,29.94,29.83,5,1,9,0.00
2013-1-4,61.9,43.1,29.5,21.2,11.3,7.8,41,29,16,29.94,29.85,5,1,9,0.00
2013-1-5,50.9,42.0,0.0,25.1,18.5,8.4,42,38,31,29.94,29.74,4,1,8,0.35
2013-1-6,57.9,46.5,34.3,29.0,21.2,12.7,43,37,25,29.85,29.77,3,0,8,0.04
2013-1-7,64.4,44.6,0.0,30.0,18.6,11.9,43,36,21,29.94,29.83,4,0,6,0.00
2013-1-8,65.5,45.3,0.0,30.4,19.1,12.9,42,36,20,29.91,29.83,6,1,8,0.00
2013-1-9,55.4,43.2,36.0,29.9,19.6,12.0,43,39,28,29.83,29.65,10,1,16,0.00
2013-1-10,58.3,43.4,0.0,25.2,11.3,6.1,43,28,17,29.85,29.74,6,2,13,0.00
2013-1-11,56.1,41.1,0.0,20.1,12.8,8.6,41,32,18,29.91,29.80,6,2,14,0.00
2013-1-12,58.3,41.7,0.0,18.1,9.4,2.4,42,28,16,29.91,29.83,5,1,9,0.00
2013-1-13,57.9,40.3,21.9,14.4,5.4,-2.7,42,25,16,29.94,29.85,12,2,20,0.00
2013-1-14,61.5,43.7,28.2,15.5,5.2,-7.2,34,21,14,30.06,29.88,6,2,14,0.00
2013-1-15,58.5,39.0,25.9,17.9,7.8,2.8,41,29,17,30.15,30.06,6,1,13,0.00
2013-1-16,63.5,41.3,0.0,16.4,9.4,4.6,42,29,16,30.09,29.94,5,1,8,0.00
2013-1-17,67.8,42.9,24.6,18.4,10.3,4.6,42,29,15,29.94,29.83,5,1,10,0.00
2013-1-18,67.5,43.5,0.0,19.6,11.0,5.7,42,29,15,29.91,29.85,4,1,10,0.00
2013-1-19,70.3,44.9,0.0,19.9,11.6,5.6,42,28,14,29.91,29.85,4,0,10,0.00
2013-1-20,68.9,44.6,26.1,19.9,11.4,6.1,42,28,15,29.91,29.83,5,1,9,0.00
2013-1-21,68.7,44.6,25.5,20.7,12.1,5.6,43,29,15,29.85,29.77,6,1,9,0.00
2013-1-22,68.5,45.8,27.1,22.5,14.4,7.0,42,31,15,29.80,29.71,6,1,11,0.00
2013-1-23,52.9,47.9,42.4,28.5,25.1,19.2,45,41,37,29.80,29.62,5,0,9,0.20
2013-1-24,62.8,52.3,48.4,35.9,29.8,27.1,46,42,29,29.88,29.77,6,0,8,0.00
2013-1-25,70.7,56.5,46.4,39.5,28.4,24.8,46,35,22,29.88,29.74,5,1,9,0.00
2013-1-26,64.2,49.6,37.8,39.7,20.8,14.7,45,34,16,29.74,29.65,9,2,20,0.00
2013-1-27,64.8,47.5,31.5,22.8,15.2,11.0,44,30,15,29.85,29.74,7,2,15,0.00
2013-1-28,65.8,50.9,36.1,23.2,16.5,11.2,40,27,15,29.94,29.83,6,3,12,0.00
2013-1-29,68.5,49.0,0.0,27.1,18.1,13.0,42,31,15,30.03,29.94,6,1,9,0.00
2013-1-30,70.9,49.5,34.0,27.1,16.5,12.7,45,30,14,30.03,29.91,5,1,9,0.00
2013-1-31,71.1,49.6,0.0,24.2,17.1,11.6,44,30,14,29.97,29.85,5,1,9,0.00
2013-2-1,72.9,50.2,0.0,23.1,16.9,11.0,43,29,14,29.88,29.83,6,1,9,0.00
2013-2-2,70.3,49.1,37.2,31.6,21.2,15.8,42,35,17,29.97,29.88,7,1,11,0.00
2013-2-3,67.3,48.6,0.0,31.4,22.4,14.2,43,36,20,29.94,29.83,6,1,11,0.00
2013-2-4,62.6,46.2,34.9,29.7,22.4,14.1,44,39,25,29.85,29.74,4,1,7,0.00
2013-2-5,65.1,50.5,42.4,27.9,24.3,20.1,42,37,20,29.83,29.74,8,2,15,0.00
2013-2-6,69.4,48.4,30.6,23.8,17.4,10.2,43,31,15,29.88,29.80,8,2,15,0.00
2013-2-7,64.4,47.4,0.0,32.7,18.3,11.2,43,33,16,29.83,29.65,9,2,20,0.08
2013-2-8,66.9,46.8,0.0,28.4,13.4,5.5,44,28,15,29.68,29.62,8,2,17,0.00
2013-2-9,68.2,49.0,31.8,18.7,11.2,3.6,40,23,15,29.77,29.65,7,2,14,0.00
2013-2-10,66.9,45.4,27.1,19.7,12.6,6.3,43,29,15,29.80,29.74,7,1,9,0.00
2013-2-11,74.8,51.0,32.2,21.1,13.1,1.6,40,24,13,29.88,29.74,7,2,14,0.00
2013-2-12,67.1,47.7,30.7,24.9,15.2,9.6,42,30,15,30.03,29.88,6,1,12,0.00
2013-2-13,72.0,49.0,0.0,22.6,15.8,9.5,43,29,14,30.00,29.88,7,1,15,0.00
2013-2-14,73.6,51.3,32.7,26.6,16.8,11.5,44,28,13,29.91,29.85,5,1,9,0.00
2013-2-15,76.5,53.0,33.1,27.9,16.8,10.3,44,27,13,29.97,29.88,6,1,10,0.00
2013-2-16,77.4,51.9,35.1,29.6,18.2,14.0,42,29,13,29.97,29.71,4,1,8,0.00
2013-2-17,72.3,50.2,32.2,25.8,15.6,10.0,43,28,14,29.83,29.65,6,1,11,0.00
2013-2-18,63.9,45.9,31.6,26.4,19.1,10.6,41,35,16,29.74,29.59,8,3,17,0.00
2013-2-19,54.5,43.1,0.0,27.0,17.4,10.5,42,35,26,29.62,29.38,6,2,15,0.28
2013-2-20,67.3,47.7,0.0,24.5,15.0,9.5,44,29,15,29.74,29.50,6,3,15,0.00
2013-2-21,71.1,49.9,32.0,22.8,14.4,6.3,41,26,14,29.91,29.68,8,3,17,0.00
2013-2-22,70.7,50.3,30.4,25.2,17.4,9.5,42,30,14,30.03,29.80,8,2,17,0.00
2013-2-23,71.1,54.1,41.0,25.6,17.6,4.4,42,26,14,30.03,29.85,7,3,14,0.00
2013-2-24,75.2,53.5,34.9,21.1,11.2,1.4,35,19,13,30.00,29.83,7,3,15,0.00
2013-2-25,76.5,50.3,31.1,26.0,15.2,9.5,42,28,13,30.00,29.85,8,1,13,0.00
2013-2-26,77.9,51.2,30.9,28.4,14.6,4.4,44,26,13,29.97,29.85,8,2,13,0.00
2013-2-27,75.0,51.2,0.0,25.5,16.4,8.6,41,28,13,30.09,29.91,6,1,10,0.00
2013-2-28,78.1,57.3,43.3,35.0,24.7,19.5,40,31,13,30.21,30.00,8,2,18,0.00
2013-3-1,80.2,56.9,37.9,35.3,22.0,16.9,42,29,12,30.21,29.91,5,1,8,0.00
2013-3-2,77.4,57.7,0.0,36.7,25.6,20.2,42,31,15,29.97,29.74,6,1,9,0.00
2013-3-3,74.1,56.4,40.6,36.4,25.0,18.4,41,32,14,29.88,29.74,9,3,18,0.00
2013-3-4,67.1,48.8,0.0,28.7,21.8,13.1,42,35,17,29.88,29.68,7,2,17,0.00
2013-3-5,63.7,48.1,32.4,29.6,19.2,11.2,44,33,16,29.80,29.56,8,3,17,0.12
2013-3-6,69.3,51.8,34.7,29.0,19.5,11.4,43,30,15,29.80,29.56,9,3,18,0.12
2013-3-7,61.0,46.8,0.0,29.8,16.2,9.7,42,31,16,29.71,29.53,5,1,8,0.00
2013-3-8,71.8,50.2,0.0,29.4,18.1,12.4,42,30,14,29.77,29.50,9,3,18,0.00
2013-3-9,77.4,53.0,33.1,29.4,16.5,9.0,43,27,13,30.06,29.77,7,2,13,0.00
2013-3-10,77.4,53.6,33.8,27.7,16.6,8.8,44,26,13,30.09,29.85,8,2,14,0.00
2013-3-11,81.9,54.7,32.9,25.0,17.1,11.3,41,26,12,30.03,29.80,7,1,14,0.00
2013-3-12,81.3,54.9,0.0,32.7,22.0,14.8,41,30,12,29.94,29.77,7,1,12,0.00
2013-3-13,86.9,60.6,37.0,33.5,22.3,15.5,41,26,11,29.94,29.65,4,1,9,0.00
2013-3-14,78.8,57.5,42.1,35.4,24.6,19.6,41,30,15,29.94,29.77,8,2,15,0.00
2013-3-15,80.8,55.2,0.0,34.7,22.3,16.7,42,30,12,29.88,29.68,8,2,16,0.00
2013-3-16,82.8,58.5,0.0,29.8,20.9,15.7,43,26,11,29.88,29.71,9,2,23,0.00
2013-3-17,80.1,58.2,0.0,24.8,18.6,13.0,40,23,12,29.91,29.80,9,2,17,0.00
2013-3-18,80.2,55.5,35.2,26.5,18.6,11.8,42,26,12,29.88,29.74,6,2,11,0.00
2013-3-19,75.7,54.7,41.4,34.3,22.2,15.7,40,30,13,29.88,29.71,6,1,11,0.04
2013-3-20,66.2,54.5,48.0,35.9,29.6,23.9,42,39,28,29.80,29.68,6,2,12,0.28
2013-3-21,72.3,54.4,0.0,29.8,19.4,14.4,44,28,14,29.88,29.71,11,3,22,0.00
2013-3-22,78.3,54.0,34.2,23.2,16.4,7.6,44,26,13,29.91,29.71,10,2,17,0.00
2013-3-23,79.2,55.4,32.5,23.6,16.4,6.3,42,25,12,29.94,29.74,8,1,14,0.00
2013-3-24,79.0,56.4,34.9,25.1,18.7,13.1,41,26,12,29.85,29.74,6,2,10,0.00
2013-3-25,69.6,51.0,34.2,29.9,19.0,12.9,41,30,15,29.80,29.59,9,3,17,0.00
2013-3-26,76.5,56.3,0.0,32.0,20.6,14.3,42,28,13,29.80,29.59,8,3,15,0.00
2013-3-27,74.1,54.8,40.8,33.1,24.4,17.7,40,32,16,29.77,29.56,6,2,10,0.00
2013-3-28,77.7,59.0,0.0,34.8,26.2,18.5,40,30,13,29.85,29.65,5,1,9,0.00
2013-3-29,84.2,60.8,42.3,37.3,25.4,19.5,41,29,11,29.88,29.65,7,2,12,0.00
2013-3-30,79.0,61.5,51.8,34.9,27.7,22.2,39,30,15,29.85,29.65,6,2,10,0.08
2013-3-31,75.6,59.9,0.0,42.6,29.4,21.2,43,33,16,29.85,29.62,7,1,13,0.16
2013-4-1,76.6,59.5,0.0,39.4,28.8,21.5,43,32,15,29.94,29.68,7,2,13,0.04
2013-4-2,79.2,56.2,41.9,35.7,24.9,19.8,41,32,15,29.97,29.74,8,2,15,0.00
2013-4-3,80.4,58.3,44.1,35.3,25.7,21.1,42,31,13,29.91,29.65,6,2,10,0.00
2013-4-4,66.7,56.8,50.2,36.5,30.9,25.5,42,38,27,29.83,29.62,6,2,13,0.71
2013-4-5,76.1,60.4,49.3,37.6,28.5,20.0,43,32,15,29.94,29.74,8,3,15,0.00
2013-4-6,78.4,59.9,51.4,36.4,29.3,23.4,41,33,15,29.94,29.56,9,2,16,0.00
2013-4-7,76.5,59.2,51.4,35.0,26.8,18.6,40,31,15,29.88,29.41,10,3,21,0.08
2013-4-8,76.3,58.7,43.5,27.4,18.8,11.4,39,23,13,29.74,29.38,9,6,26,0.00
2013-4-9,83.7,61.3,0.0,25.8,19.2,9.6,41,22,11,29.88,29.65,8,2,18,0.00
2013-4-10,94.6,68.6,43.3,32.9,24.4,18.3,39,22,10,29.97,29.68,9,3,19,0.00
2013-4-11,85.6,64.4,0.0,30.3,22.8,13.4,39,23,11,29.80,29.47,9,3,20,0.00
2013-4-12,85.5,60.3,38.1,27.3,20.5,12.0,41,25,11,29.71,29.47,9,2,17,0.00
2013-4-13,82.8,60.1,41.4,28.1,20.2,11.2,40,24,11,29.68,29.44,9,3,26,0.00
2013-4-14,80.8,58.3,37.4,25.5,18.8,12.6,39,24,12,29.68,29.50,11,4,27,0.00
2013-4-15,72.7,55.2,0.0,27.9,16.5,6.3,42,24,14,29.68,29.47,11,5,26,0.00
2013-4-16,78.3,59.6,38.7,23.2,15.6,7.7,33,19,13,29.85,29.62,8,4,15,0.00
2013-4-17,78.1,61.5,0.0,23.2,13.9,2.5,21,15,13,30.03,29.83,9,3,17,0.00
2013-4-18,90.9,63.7,39.4,26.6,18.1,4.1,36,19,10,30.06,29.83,8,2,16,0.00
2013-4-19,87.3,65.0,39.2,27.3,19.6,14.2,38,20,11,30.03,29.77,7,2,15,0.00
2013-4-20,90.7,67.0,42.4,28.0,20.5,10.9,38,19,10,29.88,29.65,9,3,15,0.00
2013-4-21,94.1,67.3,39.9,32.9,21.1,11.2,39,20,10,29.85,29.59,7,2,13,0.00
2013-4-22,101.5,70.9,0.0,34.8,23.7,11.4,38,19,10,29.80,29.53,7,2,15,0.00
2013-4-23,97.3,72.4,46.0,33.9,20.5,9.7,31,15,10,29.74,29.53,9,4,17,0.00
2013-4-24,81.5,57.5,36.9,30.8,20.5,14.2,39,27,12,29.68,29.47,10,3,18,0.00
2013-4-25,75.6,58.3,0.0,30.0,24.0,16.4,38,29,13,29.85,29.59,9,4,19,0.00
2013-4-26,80.1,58.8,0.0,32.1,24.7,16.4,39,29,12,30.00,29.77,9,3,20,0.00
2013-4-27,89.2,61.2,46.0,31.4,24.3,14.4,40,28,10,30.00,29.71,8,2,14,0.00
2013-4-28,95.0,66.0,0.0,34.0,24.1,15.7,40,24,10,29.85,29.50,7,2,15,0.00
2013-4-29,99.0,73.0,47.7,34.9,26.1,14.4,39,20,10,29.74,29.44,8,2,16,0.00
2013-4-30,96.3,72.8,45.9,33.2,24.1,18.4,38,19,10,29.65,29.41,12,3,26,0.00
2013-5-1,93.6,75.6,49.5,32.9,21.6,8.7,19,14,9,29.83,29.53,13,3,27,0.00
2013-5-2,96.6,70.3,0.0,33.2,21.6,6.8,37,17,9,29.97,29.74,7,2,13,0.00
2013-5-3,95.9,69.5,0.0,32.9,20.2,6.4,32,17,10,29.80,29.44,7,2,13,0.00
2013-5-4,96.3,67.6,0.0,33.1,22.8,9.9,37,21,10,29.50,29.26,9,2,14,0.00
2013-5-5,77.2,60.5,0.0,29.3,24.0,16.1,37,26,13,29.53,29.26,6,2,10,0.00
2013-5-6,81.3,62.6,0.0,35.6,24.8,16.5,37,25,12,29.68,29.47,6,2,10,0.00
2013-5-7,84.9,64.3,51.6,39.5,25.5,17.8,38,26,11,29.83,29.59,7,3,18,0.00
2013-5-8,75.4,58.3,0.0,31.5,25.7,17.8,40,30,13,29.91,29.68,9,4,19,0.00
2013-5-9,79.9,60.0,0.0,34.8,24.7,16.0,40,28,12,29.94,29.74,11,4,23,0.00
2013-5-10,85.1,62.0,0.0,34.2,25.9,17.3,40,28,11,29.97,29.77,9,3,19,0.00
2013-5-11,93.4,65.2,0.0,38.0,25.9,14.8,40,26,10,29.94,29.74,7,2,11,0.00
2013-5-12,91.2,66.7,42.3,32.7,23.0,14.4,40,22,10,29.94,29.68,10,3,20,0.00
2013-5-13,90.0,66.9,0.0,35.6,22.6,14.5,41,22,10,29.88,29.59,9,2,19,0.00
2013-5-14,88.5,65.8,0.0,33.1,21.8,12.0,38,21,10,29.77,29.56,9,3,15,0.00
2013-5-15,82.8,63.5,0.0,32.6,22.2,14.5,39,23,11,29.83,29.62,11,3,20,0.00
2013-5-16,81.1,62.8,0.0,34.0,24.7,15.7,37,25,12,29.80,29.65,10,4,26,0.00
2013-5-17,81.5,61.3,0.0,32.1,21.0,12.4,41,24,12,29.83,29.59,10,3,22,0.00
2013-5-18,88.7,64.7,0.0,34.5,20.8,14.3,40,21,10,29.94,29.71,10,3,18,0.00
2013-5-19,99.0,70.0,0.0,34.6,21.7,9.9,38,18,10,29.91,29.65,8,2,17,0.00
2013-5-20,102.2,73.8,48.9,35.2,25.5,13.4,37,19,9,29.83,29.59,8,3,17,0.00
2013-5-21,85.5,65.0,48.4,27.7,20.5,9.7,37,20,11,29.77,29.56,10,5,22,0.00
2013-5-22,83.3,60.9,0.0,24.5,14.3,0.8,29,16,11,29.80,29.56,10,4,23,0.00
2013-5-23,85.6,61.6,0.0,25.1,18.5,9.6,38,21,11,29.80,29.56,8,2,18,0.00
2013-5-24,88.2,62.0,0.0,28.2,18.9,10.6,40,21,10,29.80,29.59,8,2,17,0.00
2013-5-25,85.8,61.8,39.6,31.6,20.9,14.0,39,24,11,29.80,29.59,9,3,20,0.00
2013-5-26,83.7,64.0,0.0,37.1,23.0,14.4,41,24,11,29.88,29.68,10,4,26,0.00
2013-5-27,75.2,59.2,44.6,35.1,25.4,18.4,40,29,14,29.88,29.65,7,2,15,0.04
2013-5-28,86.7,65.7,0.0,44.1,27.7,16.1,43,26,11,29.80,29.59,8,3,19,0.00
2013-5-29,86.4,67.7,0.0,31.7,24.6,15.7,36,22,11,29.77,29.59,10,4,20,0.00
2013-5-30,94.1,67.8,40.3,32.9,22.2,11.7,40,21,9,30.18,29.56,9,3,19,0.00
2013-5-31,100.8,72.4,0.0,34.9,23.4,12.7,38,18,10,30.39,29.62,10,2,17,0.00
2013-6-1,108.0,77.4,46.4,36.4,25.1,13.6,36,16,8,30.71,29.47,8,2,15,0.00
2013-6-2,97.2,71.3,0.0,33.8,24.9,12.0,37,20,10,30.30,29.41,9,2,13,0.00
2013-6-3,92.7,69.1,0.0,36.2,25.5,14.8,40,23,10,30.89,29.56,9,3,17,0.00
2013-6-4,88.0,65.8,54.1,31.4,25.9,15.7,37,25,10,31.01,29.65,9,4,26,0.00
2013-6-5,88.0,66.0,54.5,30.9,26.4,15.7,38,26,10,31.01,29.65,10,5,17,0.00
2013-6-6,93.4,67.4,0.0,33.5,25.8,15.1,38,24,9,31.01,29.56,10,3,17,0.00
2013-6-7,103.8,73.7,48.6,36.5,28.4,18.8,39,23,9,31.01,29.44,8,2,14,0.00
2013-6-8,105.8,75.6,0.0,35.3,27.9,16.4,37,19,9,31.01,29.47,10,3,15,0.00
2013-6-9,85.3,66.8,57.6,33.5,27.1,17.4,37,25,11,31.01,29.59,9,5,17,0.00
2013-6-10,74.8,62.8,52.5,37.0,26.6,16.0,38,27,13,31.01,29.68,6,3,12,0.00
2013-6-11,96.3,70.5,50.7,34.6,24.4,12.1,38,20,10,31.01,29.59,9,3,17,0.00
2013-6-12,96.3,69.3,0.0,33.2,22.2,11.8,38,19,9,31.01,29.62,10,3,21,0.00
2013-6-13,96.3,71.0,0.0,33.2,22.5,11.0,38,18,9,31.01,29.68,9,3,17,0.00
2013-6-14,106.7,73.6,0.0,36.0,23.3,9.6,37,17,9,31.01,29.50,8,2,17,0.00
2013-6-15,89.2,63.8,43.7,31.2,19.8,9.7,36,20,10,31.01,29.62,9,3,15,0.00
2013-6-16,97.9,69.9,0.0,34.6,23.3,12.1,39,20,9,31.01,29.74,12,3,25,0.00
2013-6-17,91.0,69.0,0.0,31.1,23.8,14.2,37,21,10,31.01,29.71,11,4,27,0.00
2013-6-18,86.9,66.4,0.0,33.7,23.9,14.4,42,23,11,31.01,29.65,11,4,24,0.00
2013-6-19,94.8,69.0,0.0,32.9,21.8,11.2,37,19,9,30.42,29.71,10,3,23,0.00
2013-6-20,96.1,70.4,43.2,32.9,22.2,12.4,37,18,9,30.30,29.62,10,3,19,0.00
2013-6-21,101.5,73.1,44.4,34.9,23.8,13.0,38,18,9,30.33,29.62,8,2,16,0.00
2013-6-22,104.2,75.1,45.9,35.2,23.7,11.2,35,16,9,30.06,29.53,9,3,20,0.00
2013-6-23,80.2,66.1,55.6,39.7,28.7,19.5,40,27,12,29.91,29.59,8,4,16,0.00
2013-6-24,73.0,63.0,0.0,36.9,32.9,22.4,41,33,16,29.91,29.68,6,2,10,0.00
2013-6-25,73.4,65.0,60.4,46.0,40.4,36.6,44,41,32,30.06,29.85,6,1,10,0.51
2013-6-26,93.0,74.5,62.6,46.0,35.2,20.9,44,28,10,30.09,29.74,6,2,13,0.00
2013-6-27,103.5,78.2,55.2,41.9,30.4,18.4,43,21,9,30.12,29.74,8,2,20,0.00
2013-6-28,108.9,79.9,0.0,41.9,30.9,18.4,40,20,8,29.91,29.62,8,2,17,0.00
2013-6-29,111.6,84.9,0.0,38.9,30.1,18.4,37,16,7,29.88,29.53,8,2,15,0.00
2013-6-30,104.2,80.8,0.0,37.2,29.6,16.0,36,18,9,29.74,29.47,8,2,17,0.00
2013-7-1,109.8,78.5,55.6,39.7,30.8,20.2,38,21,8,29.74,29.53,8,2,13,0.00
2013-7-2,96.8,77.4,62.6,41.0,30.0,18.4,36,20,9,29.74,29.59,8,3,13,0.00
2013-7-3,106.7,79.9,58.5,38.8,30.4,18.4,37,20,9,29.74,29.50,9,2,17,0.00
2013-7-4,101.5,82.1,62.6,37.8,29.8,15.7,34,17,10,29.62,29.38,7,3,13,0.00
2013-7-5,89.6,68.4,0.0,32.5,23.5,14.2,38,20,10,29.59,29.38,8,4,13,0.00
2013-7-6,82.8,64.7,0.0,32.9,27.8,18.4,40,27,11,29.62,29.47,8,4,14,0.00
2013-7-7,94.3,67.7,50.0,35.1,26.9,16.3,40,25,9,29.68,29.50,8,3,14,0.00
2013-7-8,96.3,69.0,48.6,33.2,26.4,16.3,40,24,9,29.77,29.56,7,2,13,0.00
2013-7-9,106.7,74.8,47.8,37.4,27.4,15.1,40,21,9,29.85,29.62,7,2,13,0.00
2013-7-10,100.4,69.7,0.0,38.2,26.0,14.4,40,23,9,29.80,29.59,9,3,15,0.00
2013-7-11,91.8,67.1,51.6,31.6,26.4,15.7,39,25,9,29.74,29.56,8,3,15,0.00
2013-7-12,91.2,66.4,0.0,32.3,26.0,15.4,38,25,10,29.77,29.56,7,2,17,0.00
2013-7-13,92.5,68.3,45.0,34.0,23.6,14.5,40,22,9,29.83,29.59,8,3,15,0.00
2013-7-14,91.4,65.9,0.0,37.5,24.5,14.4,40,24,10,29.88,29.59,8,2,15,0.00
2013-7-15,86.9,64.1,51.3,31.8,26.7,16.8,39,28,11,29.74,29.56,9,4,18,0.00
2013-7-16,82.8,65.1,56.1,32.8,27.4,18.4,38,27,11,29.80,29.62,9,4,17,0.00
2013-7-17,95.9,67.0,0.0,35.8,27.6,17.0,41,26,9,29.91,29.74,9,2,16,0.00
2013-7-18,97.5,69.5,52.7,37.0,28.9,15.8,41,26,9,29.85,29.65,9,2,18,0.00
2013-7-19,97.9,69.9,0.0,37.6,28.0,17.6,40,25,9,29.77,29.50,8,2,14,0.00
2013-7-20,94.1,67.9,51.8,35.3,28.2,19.5,41,26,9,29.65,29.47,8,3,13,0.00
2013-7-21,92.5,68.3,50.0,38.0,25.9,18.4,41,24,9,29.65,29.47,8,3,12,0.00
2013-7-22,99.9,72.3,51.6,39.2,27.0,19.5,40,22,9,29.77,29.59,8,2,13,0.00
2013-7-23,95.4,74.2,60.3,38.0,28.4,18.4,35,21,9,29.83,29.65,6,3,14,0.00
2013-7-24,100.6,74.9,54.1,39.9,28.5,15.7,40,21,9,29.83,29.62,9,3,18,0.00
2013-7-25,98.6,71.6,53.1,38.6,27.1,15.7,40,23,9,29.83,29.62,10,2,19,0.00
2013-7-26,96.3,69.6,53.1,34.5,27.9,16.5,40,25,9,29.88,29.71,9,3,17,0.00
2013-7-27,93.6,68.7,0.0,34.7,28.5,18.1,40,26,9,29.80,29.56,9,3,16,0.00
2013-7-28,88.5,65.7,53.8,33.5,27.0,16.5,40,27,10,29.68,29.50,9,3,15,0.00
2013-7-29,90.9,66.3,53.6,33.7,28.0,18.4,39,27,10,29.80,29.53,9,3,17,0.00
2013-7-30,91.2,66.1,0.0,35.1,28.2,16.8,40,27,10,29.91,29.71,8,3,17,0.00
2013-7-31,93.0,67.2,0.0,34.9,27.5,15.7,41,26,9,29.88,29.68,9,3,20,0.00
2013-8-1,91.6,69.2,49.5,38.8,25.7,15.7,44,23,9,29.85,29.65,9,3,17,0.00
2013-8-2,90.9,67.6,0.0,35.9,25.7,18.8,42,24,10,29.80,29.59,8,3,14,0.00
2013-8-3,87.3,65.3,0.0,34.3,27.9,15.8,42,28,11,29.80,29.62,7,3,15,0.00
2013-8-4,87.3,63.8,50.5,33.4,28.1,17.8,41,30,11,29.83,29.65,9,3,16,0.00
2013-8-5,90.1,66.8,51.6,33.2,27.4,15.7,41,27,10,29.83,29.65,7,3,13,0.00
2013-8-6,87.4,65.8,0.0,33.3,28.1,18.1,41,27,11,29.85,29.68,10,4,20,0.00
2013-8-7,87.4,67.0,57.6,36.1,28.8,19.5,38,26,11,29.88,29.74,8,4,17,0.00
2013-8-8,92.8,68.3,0.0,37.1,29.5,18.4,42,27,9,29.83,29.62,9,4,17,0.00
2013-8-9,90.5,66.1,0.0,34.9,29.4,18.4,42,29,10,29.77,29.65,9,3,17,0.00
2013-8-10,91.6,67.6,0.0,35.8,30.8,19.5,42,29,9,29.85,29.71,9,3,18,0.00
2013-8-11,92.8,68.2,54.0,37.6,29.7,18.1,43,28,9,29.83,29.62,10,2,18,0.00
2013-8-12,92.8,65.7,0.0,38.1,27.9,15.7,44,28,9,29.83,29.65,7,2,15,0.00
2013-8-13,103.5,71.7,0.0,41.3,28.2,15.8,42,24,9,29.80,29.59,8,2,15,0.00
2013-8-14,97.3,71.9,47.1,35.6,27.1,19.5,40,22,9,29.80,29.59,8,2,19,0.00
2013-8-15,99.5,74.7,52.5,41.4,31.5,22.6,45,25,9,29.83,29.59,10,3,21,0.00
2013-8-16,103.5,74.1,55.2,46.3,32.2,18.4,45,26,9,29.83,29.65,8,2,20,0.00
2013-8-17,92.3,70.6,52.2,40.8,28.4,19.5,42,25,9,29.80,29.56,7,2,10,0.00
2013-8-18,104.9,77.5,0.0,45.8,32.0,18.4,45,23,9,29.74,29.50,8,2,15,0.00
2013-8-19,105.8,76.3,0.0,42.5,31.8,19.5,39,23,9,29.71,29.53,8,3,15,0.00
2013-8-20,96.4,71.7,0.0,42.7,31.8,19.5,41,26,10,29.74,29.56,8,4,13,0.00
2013-8-21,95.0,70.2,55.9,37.0,31.0,18.4,41,27,9,29.74,29.59,8,4,17,0.00
2013-8-22,88.2,66.0,51.8,35.8,29.0,18.4,42,28,10,29.77,29.62,9,4,20,0.00
2013-8-23,90.7,68.6,56.7,36.9,29.3,18.4,40,27,10,29.74,29.50,8,3,16,0.00
2013-8-24,94.5,70.3,48.7,40.1,28.7,19.5,43,25,9,29.74,29.53,10,4,22,0.00
2013-8-25,97.0,74.1,56.8,45.8,32.7,20.8,42,26,9,29.77,29.59,8,3,17,0.00
2013-8-26,97.9,71.7,55.2,42.1,31.1,18.5,41,26,9,29.83,29.59,9,4,17,0.00
2013-8-27,97.3,70.2,47.5,38.3,28.4,19.5,43,25,9,29.77,29.53,9,2,22,0.00
2013-8-28,95.9,71.8,52.3,45.7,32.3,21.9,44,28,9,29.80,29.56,9,3,20,0.00
2013-8-29,98.1,75.3,61.5,50.9,35.1,21.9,44,28,10,29.88,29.68,8,3,19,0.00
2013-8-30,105.3,77.1,54.7,46.9,32.0,18.4,50,24,9,29.91,29.62,8,2,19,0.00
2013-8-31,97.5,71.5,49.8,41.4,29.6,19.5,43,25,9,29.83,29.59,9,3,19,0.00
2013-9-1,97.2,71.4,57.0,42.4,32.1,21.9,42,27,9,29.74,29.59,9,4,19,0.00
2013-9-2,96.8,73.2,56.1,49.5,34.1,22.0,43,28,10,29.80,29.62,9,3,24,0.00
2013-9-3,95.5,70.6,49.1,44.9,30.3,20.4,46,27,9,29.85,29.62,9,3,19,0.00
2013-9-4,99.0,69.9,0.0,43.0,29.0,19.5,45,26,9,29.91,29.62,9,2,17,0.00
2013-9-5,96.3,70.9,48.2,42.8,28.3,18.4,45,25,9,29.88,29.65,9,2,20,0.00
2013-9-6,103.1,73.8,0.0,39.2,26.8,13.7,43,21,9,29.85,29.53,6,1,12,0.00
2013-9-7,109.0,76.9,0.0,36.6,26.8,15.2,38,18,8,29.74,29.53,7,2,16,0.00
2013-9-8,104.4,74.4,48.7,39.2,27.5,14.7,40,21,9,29.74,29.47,7,2,13,0.00
2013-9-9,111.0,74.4,0.0,36.4,28.4,18.4,39,22,8,29.71,29.38,9,2,15,0.00
2013-9-10,95.4,68.1,0.0,39.2,31.2,21.9,41,28,9,29.65,29.44,9,3,17,0.00
2013-9-11,89.2,70.1,0.0,38.3,33.7,0.0,38,28,10,29.80,29.65,10,4,17,0.00
2013-9-12,93.0,69.1,0.0,40.0,33.6,0.0,42,30,9,29.80,29.59,10,3,20,0.00
2013-9-13,92.8,67.7,0.0,43.7,31.1,0.0,44,30,9,29.77,29.44,9,2,23,0.00
2013-9-14,89.6,65.9,0.0,41.3,30.4,0.0,44,31,10,29.65,29.44,8,2,17,0.00
2013-9-15,95.4,68.6,47.5,45.7,30.6,19.9,45,29,9,29.71,29.47,9,3,17,0.00
2013-9-16,96.1,69.6,0.0,41.4,28.9,0.0,47,26,9,29.77,29.47,9,2,17,0.00
2013-9-17,90.0,67.9,0.0,41.1,25.8,0.0,45,24,10,29.68,29.50,10,3,20,0.00
2013-9-18,99.7,69.5,46.6,38.4,24.8,11.2,42,22,9,29.77,29.50,8,2,16,0.00
2013-9-19,101.8,69.8,42.1,35.1,24.2,14.0,40,21,9,29.71,29.44,7,2,14,0.00
2013-9-20,89.4,65.4,0.0,39.3,26.1,0.0,41,26,10,29.68,29.44,9,3,22,0.00
2013-9-21,75.4,63.5,51.6,46.6,35.6,22.8,45,37,16,29.65,29.53,9,2,20,0.47
2013-9-22,86.7,64.8,45.3,37.6,26.4,18.5,47,28,11,29.88,29.62,8,2,18,0.00
2013-9-23,95.4,69.4,47.5,37.8,29.0,0.0,46,26,9,29.91,29.65,8,2,15,0.00
2013-9-24,90.5,66.8,50.5,48.9,27.5,0.0,45,27,10,29.83,29.59,10,3,22,0.00
2013-9-25,86.7,64.8,0.0,35.7,22.3,0.0,40,22,11,29.71,29.50,10,3,18,0.00
2013-9-26,90.9,65.8,0.0,26.8,20.6,0.0,38,20,10,29.74,29.53,7,2,15,0.00
2013-9-27,91.8,69.0,0.0,27.0,18.4,0.0,27,15,10,29.88,29.71,8,2,16,0.00
2013-9-28,88.7,61.0,41.9,35.2,23.6,0.0,40,27,10,29.94,29.71,7,2,17,0.00
2013-9-29,86.0,65.9,52.3,43.7,34.3,0.0,44,34,11,29.91,29.77,8,2,14,0.00
2013-9-30,74.8,65.4,50.5,49.4,39.5,26.3,45,39,26,29.91,29.68,6,1,10,0.04
2013-10-1,87.8,62.5,0.0,39.2,23.2,14.4,46,26,10,29.88,29.62,7,2,13,0.00
2013-10-2,88.3,63.7,0.0,38.9,21.8,12.7,43,23,10,29.85,29.62,9,3,15,0.00
2013-10-3,85.8,65.1,0.0,32.8,18.9,8.8,39,19,11,29.88,29.65,11,4,24,0.00
2013-10-4,88.2,71.3,54.0,26.5,19.2,7.3,18,14,10,29.88,29.68,12,5,23,0.00
2013-10-5,92.8,68.0,45.5,32.8,16.6,3.4,20,14,9,30.00,29.74,7,2,14,0.00
2013-10-6,94.3,64.3,37.4,32.9,17.5,3.4,36,18,9,29.91,29.68,6,1,10,0.00
2013-10-7,95.4,64.8,0.0,32.9,19.3,8.7,33,19,9,29.80,29.53,6,2,13,0.00
2013-10-8,90.0,60.1,0.0,32.6,19.3,10.9,40,23,10,29.71,29.35,7,1,13,0.00
2013-10-9,87.1,58.9,0.0,37.0,19.5,9.3,41,24,11,29.47,29.29,7,2,13,0.00
2013-10-10,77.2,56.6,0.0,28.4,20.1,15.0,39,25,13,29.74,29.41,8,2,13,0.00
2013-10-11,81.9,54.3,0.0,35.3,20.6,13.7,42,30,12,29.85,29.65,6,2,13,0.00
2013-10-12,81.9,54.3,0.0,35.4,20.4,13.4,42,29,12,29.80,29.56,7,2,13,0.00
2013-10-13,88.0,61.2,39.0,35.8,19.9,6.4,42,23,10,29.83,29.59,7,2,14,0.00
2013-10-14,88.7,59.3,36.1,31.9,17.0,3.4,41,22,10,29.91,29.68,5,1,11,0.00
2013-10-15,91.8,60.8,36.0,31.0,16.6,2.5,40,21,9,29.85,29.59,6,2,13,0.00
2013-10-16,92.7,61.1,35.8,32.5,14.7,1.8,34,18,9,29.91,29.62,5,1,10,0.00
2013-10-17,95.0,61.3,0.0,32.6,15.8,2.4,36,18,9,29.88,29.62,6,1,10,0.00
2013-10-18,90.3,59.7,0.0,26.5,15.4,4.4,36,19,10,29.85,29.62,4,1,8,0.00
2013-10-19,92.1,60.5,0.0,31.9,17.6,6.7,39,21,10,29.88,29.65,4,1,8,0.00
2013-10-20,90.5,59.4,0.0,26.6,18.4,10.6,40,23,10,29.83,29.56,6,1,10,0.00
2013-10-21,84.4,55.0,0.0,37.1,21.8,15.7,41,30,11,29.80,29.59,5,1,8,0.00
2013-10-22,86.7,55.6,0.0,37.9,20.5,14.3,42,29,11,29.80,29.59,4,1,8,0.00
2013-10-23,84.4,54.5,39.0,37.4,21.8,12.3,42,31,11,29.77,29.56,5,1,9,0.00
2013-10-24,76.3,54.9,41.5,31.9,23.6,15.4,43,32,13,29.85,29.62,7,1,13,0.00
2013-10-25,84.4,55.9,35.2,32.4,18.8,10.5,43,27,11,29.97,29.74,6,1,10,0.00
2013-10-26,90.3,59.1,35.8,33.4,18.7,8.2,42,24,10,29.94,29.65,4,1,8,0.00
2013-10-27,73.4,51.7,38.1,35.1,22.4,15.1,42,34,13,29.68,29.29,9,3,20,0.00
2013-10-28,77.4,54.6,35.6,31.2,20.2,14.4,43,29,13,29.53,29.32,6,2,14,0.00
2013-10-29,77.4,54.7,38.1,37.6,20.4,12.1,42,29,13,29.80,29.47,6,1,10,0.00
2013-10-30,79.0,53.2,34.3,29.0,16.4,6.4,42,26,12,29.94,29.68,5,1,10,0.00
2013-10-31,84.0,55.8,34.5,25.6,16.4,6.3,42,24,11,29.97,29.71,4,1,8,0.00
2013-11-1,84.0,57.3,37.0,29.1,17.0,6.3,40,23,11,29.94,29.65,7,1,11,0.00
2013-11-2,84.2,56.3,37.2,27.4,19.8,11.9,40,27,11,29.80,29.56,8,2,19,0.00
2013-11-3,76.5,52.2,30.6,27.5,14.7,-0.8,44,25,13,29.83,29.56,5,1,10,0.00
2013-11-4,80.2,57.0,30.2,23.6,14.7,5.6,41,21,12,29.80,29.53,8,2,15,0.00
2013-11-5,82.6,61.7,41.5,24.5,13.8,1.4,21,15,12,29.97,29.71,5,2,10,0.00
2013-11-6,79.3,57.4,39.2,23.5,14.2,4.0,32,19,12,30.03,29.80,7,1,13,0.00
2013-11-7,86.0,59.2,0.0,25.1,18.7,9.7,38,22,11,29.94,29.71,6,1,13,0.00
2013-11-8,85.5,55.9,0.0,30.7,18.7,11.8,41,26,11,29.85,29.59,7,1,13,0.00
2013-11-9,83.7,55.4,33.8,25.7,17.6,11.2,41,26,11,29.83,29.62,5,1,10,0.00
2013-11-10,76.5,52.4,36.7,32.9,19.4,15.0,42,30,13,29.91,29.65,4,1,8,0.00
2013-11-11,73.4,52.3,34.9,35.0,20.0,12.3,43,30,13,29.88,29.71,3,0,6,0.00
2013-11-12,81.0,57.8,42.4,31.8,21.8,9.7,38,27,12,30.00,29.83,4,1,7,0.00
2013-11-13,87.1,58.2,36.9,28.7,20.9,15.2,41,27,11,30.00,29.74,6,1,12,0.00
2013-11-14,68.7,54.1,0.0,37.7,25.6,0.0,44,34,17,29.80,29.50,8,1,15,0.00
2013-11-15,77.9,54.3,34.5,23.1,13.4,3.5,36,21,13,29.62,29.35,7,2,13,0.00
2013-11-16,75.9,51.9,32.9,30.0,18.8,10.7,42,30,13,29.62,29.38,7,1,13,0.00
2013-11-17,71.6,47.5,33.3,35.2,18.3,0.0,44,34,14,29.83,29.56,5,1,9,0.00
2013-11-18,72.9,49.9,32.9,32.1,20.2,12.3,42,33,14,29.88,29.71,5,1,10,0.00
2013-11-19,58.5,54.6,0.0,36.6,32.0,0.0,46,42,37,29.80,29.65,3,0,6,0.71
2013-11-20,63.9,57.3,52.3,43.0,37.1,31.4,52,47,41,29.65,29.56,4,1,10,0.24
2013-11-21,70.3,58.2,0.0,32.0,21.4,0.0,46,27,14,29.77,29.56,20,7,39,0.04
2013-11-22,76.5,65.4,56.8,21.9,16.9,12.4,17,15,13,29.74,29.56,17,8,30,0.00
2013-11-23,72.0,55.1,34.5,20.1,11.5,1.1,32,18,14,29.83,29.59,6,2,13,0.00
2013-11-24,71.2,47.3,30.2,24.1,12.8,6.4,41,27,14,29.97,29.71,6,1,9,0.00
2013-11-25,70.7,47.7,31.1,28.4,14.6,7.3,42,29,14,30.09,29.85,5,1,8,0.00
2013-11-26,70.9,47.8,34.0,30.4,16.5,8.5,42,31,14,29.94,29.68,4,0,8,0.00
2013-11-27,73.8,50.2,34.0,32.5,16.5,9.6,42,29,13,29.71,29.50,7,1,10,0.00
2013-11-28,76.5,50.9,34.9,35.6,16.8,7.6,42,29,13,29.74,29.50,5,0,7,0.00
2013-11-29,75.2,51.1,34.0,29.1,16.5,8.4,42,28,13,29.94,29.71,4,1,8,0.00
2013-11-30,75.0,49.9,36.1,37.1,16.9,8.7,42,30,13,30.03,29.83,4,0,6,0.00
2013-12-1,77.5,52.3,34.2,30.9,17.3,9.4,43,28,13,30.09,29.83,4,0,8,0.00
2013-12-2,72.9,52.5,32.5,33.9,21.0,11.9,43,31,14,29.88,29.65,6,2,11,0.00
2013-12-3,65.5,49.5,34.0,34.1,14.0,-0.8,44,25,15,29.65,29.47,6,3,13,0.00
2013-12-4,64.8,41.1,21.7,17.0,4.1,-10.3,38,22,15,29.80,29.56,5,1,11,0.00
2013-12-5,59.5,35.7,17.6,14.6,0.7,-9.5,35,24,15,29.88,29.68,4,1,9,0.00
2013-12-6,56.3,38.3,19.2,26.0,8.3,-3.5,43,30,16,29.91,29.56,4,1,8,0.51
2013-12-7,60.1,40.5,26.8,29.3,9.3,-6.0,45,30,16,29.85,29.56,8,2,14,0.00
2013-12-8,56.7,36.0,24.1,18.9,4.5,-6.9,42,28,15,30.03,29.83,6,1,10,0.00
2013-12-9,57.0,35.5,20.5,13.5,2.5,-7.5,42,26,15,30.12,29.91,5,1,9,0.00
2013-12-10,60.8,38.2,22.1,15.5,4.8,-2.7,39,26,16,30.06,29.83,4,0,9,0.00
2013-12-11,63.7,40.3,23.9,18.6,7.0,-2.4,42,27,16,30.00,29.80,4,1,9,0.00
2013-12-12,65.3,41.4,23.7,21.3,8.5,-0.2,42,28,15,30.00,29.80,4,0,8,0.00
2013-12-13,66.2,42.6,25.0,19.3,9.4,1.1,42,28,15,30.06,29.83,4,0,8,0.00
2013-12-14,68.2,43.0,0.0,22.3,10.3,2.5,42,28,15,30.15,29.91,5,1,10,0.00
2013-12-15,68.5,43.6,25.5,21.8,10.4,2.3,42,28,15,30.09,29.85,3,0,6,0.00
2013-12-16,72.3,46.2,29.3,24.5,12.1,3.1,41,27,14,29.97,29.74,5,0,9,0.00
2013-12-17,71.8,45.7,31.5,29.7,13.8,5.3,41,30,14,29.91,29.65,4,0,8,0.00
2013-12-18,71.1,47.7,33.8,29.8,18.3,10.2,42,33,14,29.71,29.38,7,1,14,0.00
2013-12-19,67.8,53.0,0.0,24.1,13.5,4.3,38,22,15,29.59,29.35,9,4,17,0.00
2013-12-20,71.1,48.1,29.5,19.9,6.6,-6.3,31,19,14,29.77,29.53,7,1,14,0.00
2013-12-21,73.0,47.9,0.0,21.5,13.5,7.2,40,27,14,29.83,29.59,4,1,9,0.00
2013-12-22,69.8,46.9,31.3,29.2,13.1,3.8,42,28,14,30.00,29.71,4,1,9,0.00
2013-12-23,72.9,46.7,0.0,24.2,12.7,5.2,41,27,14,30.15,29.91,5,0,8,0.00
2013-12-24,73.9,48.2,0.0,27.5,13.7,3.6,41,27,13,30.06,29.83,4,0,7,0.00
2013-12-25,71.8,45.6,0.0,23.4,10.9,0.9,42,27,14,30.06,29.83,5,1,8,0.00
2013-12-26,72.9,45.4,0.0,21.3,9.7,-1.9,41,25,14,30.00,29.80,4,0,8,0.00
2013-12-27,66.9,42.3,0.0,23.7,10.2,3.3,40,28,15,29.97,29.74,3,0,4,0.00
2013-12-28,72.7,44.8,0.0,21.2,11.3,2.4,42,28,14,29.88,29.65,4,1,8,0.00
2013-12-29,73.4,47.6,0.0,21.1,9.2,-2.7,37,22,13,29.94,29.68,4,1,11,0.00
2013-12-30,69.3,44.0,0.0,19.4,8.8,0.8,40,25,15,30.00,29.77,5,0,8,0.00
2013-12-31,69.4,43.2,0.0,25.8,10.5,0.5,40,28,15,30.00,29.77,3,0,6,0.00
2014-1-1,71.6,44.6,0.0,23.3,9.4,-1.2,41,25,14,29.94,29.74,3,0,6,0.00
2014-1-2,72.9,47.7,0.0,21.6,11.0,2.5,40,24,14,29.94,29.65,4,0,8,0.00